Time;durP1;ratioP1;P1;durP2;ratioP2;P2;SDS_P1;SDS_P2;PMS_P1;PMS_P2;Temp;Humidity;BMP_temperature;BMP_pressure;BME280_temperature;BME280_humidity;BME280_pressure;Samples;Min_cycle;Max_cycle;Signal;HPM_P1;HPM_P2
2021/09/29 00:02:55;;;;;;;1.20;0.82;;;;;;;9.26;100.00;99330.00;5093251;28;20087;-55
2021/09/29 00:05:58;;;;;;;1.25;0.40;;;;;;;9.29;100.00;99329.78;5092862;28;20043;-54
2021/09/29 00:09:01;;;;;;;1.25;1.15;;;;;;;9.65;100.00;99328.63;5092938;28;20051;-57
2021/09/29 00:12:05;;;;;;;1.33;0.50;;;;;;;9.72;100.00;99328.97;5092727;28;20055;-55
2021/09/29 00:15:14;;;;;;;0.40;0.40;;;;;;;9.70;100.00;99327.94;5092905;28;20050;-55
2021/09/29 00:18:18;;;;;;;1.23;0.75;;;;;;;9.72;100.00;99328.97;5092870;28;20125;-55
2021/09/29 00:21:21;;;;;;;3.70;1.08;;;;;;;9.71;100.00;99332.25;5093026;28;20043;-55
2021/09/29 00:24:25;;;;;;;3.40;0.85;;;;;;;9.40;100.00;99335.53;5096612;28;20083;-55
2021/09/29 00:27:28;;;;;;;1.45;0.45;;;;;;;9.57;100.00;99333.03;5096259;28;20046;-55
2021/09/29 00:30:36;;;;;;;1.20;0.70;;;;;;;9.48;100.00;99330.38;5096180;28;20039;-55
2021/09/29 00:33:46;;;;;;;2.03;1.20;;;;;;;8.86;100.00;99338.84;5096737;28;20084;-55
2021/09/29 00:36:49;;;;;;;2.13;0.85;;;;;;;8.74;100.00;99351.00;5096554;28;20082;-53
2021/09/29 00:39:52;;;;;;;5.13;0.85;;;;;;;8.89;100.00;99349.78;5096602;28;20039;-53
2021/09/29 00:42:55;;;;;;;6.80;1.05;;;;;;;8.95;100.00;99367.31;5096933;28;20050;-55
2021/09/29 00:45:58;;;;;;;1.17;1.02;;;;;;;8.90;100.00;99359.63;5096547;28;20047;-55
2021/09/29 00:49:01;;;;;;;2.10;0.65;;;;;;;8.83;100.00;99371.13;5096507;28;20062;-53
2021/09/29 00:52:05;;;;;;;2.15;1.10;;;;;;;9.03;100.00;99374.03;5096474;28;20089;-55
2021/09/29 00:55:12;;;;;;;0.73;0.22;;;;;;;9.08;100.00;99381.72;5096333;28;20065;-55
2021/09/29 00:58:15;;;;;;;2.50;0.75;;;;;;;9.08;100.00;99378.16;5096566;28;20039;-55
2021/09/29 01:01:18;;;;;;;0.40;0.40;;;;;;;9.33;100.00;99379.63;5096284;28;20120;-55
2021/09/29 01:04:24;;;;;;;0.50;0.50;;;;;;;9.41;100.00;99378.00;5096145;28;20553;-55
2021/09/29 01:07:37;;;;;;;3.30;0.70;;;;;;;9.09;100.00;99394.38;5095881;28;20043;-53
2021/09/29 01:11:14;;;;;;;1.50;0.77;;;;;;;9.17;100.00;99394.75;5095959;28;20043;-55
2021/09/29 01:14:48;;;;;;;0.43;0.43;;;;;;;9.33;100.00;99385.19;5096224;28;20039;-55
2021/09/29 01:17:55;;;;;;;0.40;0.40;;;;;;;9.30;100.00;99386.13;5088348;28;20454;-55
2021/09/29 01:21:02;;;;;;;5.18;0.65;;;;;;;9.43;100.00;99389.41;5095745;28;20399;-55
2021/09/29 01:24:20;;;;;;;0.32;0.32;;;;;;;9.32;100.00;99380.84;5095779;28;20427;-55
2021/09/29 01:27:24;;;;;;;0.65;0.43;;;;;;;9.11;100.00;99391.09;5095997;28;20497;-55
2021/09/29 01:30:31;;;;;;;0.47;0.47;;;;;;;9.06;100.00;99392.53;5095690;28;20082;-55
2021/09/29 01:33:36;;;;;;;2.13;0.40;;;;;;;8.99;100.00;99392.91;5083102;28;20046;-55
2021/09/29 01:36:42;;;;;;;0.73;0.38;;;;;;;8.88;100.00;99395.44;5095573;28;20101;-53
2021/09/29 01:39:46;;;;;;;0.35;0.30;;;;;;;8.76;100.00;99398.47;5095276;28;20042;-55
2021/09/29 01:42:50;;;;;;;0.30;0.30;;;;;;;8.60;100.00;99396.91;5095244;28;20434;-55
2021/09/29 01:45:53;;;;;;;1.90;0.55;;;;;;;8.68;100.00;99406.41;5095194;28;20530;-55
2021/09/29 01:49:19;;;;;;;0.77;0.30;;;;;;;9.45;100.00;99409.13;5095342;28;20139;-55
2021/09/29 01:52:23;;;;;;;0.20;0.20;;;;;;;9.65;100.00;99398.13;5095164;28;20065;-55
2021/09/29 01:55:31;;;;;;;0.28;0.28;;;;;;;9.86;100.00;99394.16;5095173;28;20522;-55
2021/09/29 01:58:34;;;;;;;0.40;0.40;;;;;;;9.80;100.00;99396.09;5095012;28;20046;-55
2021/09/29 02:01:41;;;;;;;0.43;0.25;;;;;;;9.80;100.00;99401.66;5094962;28;20043;-55
2021/09/29 02:04:49;;;;;;;0.30;0.30;;;;;;;9.77;100.00;99413.72;5094895;28;20085;-54
2021/09/29 02:07:52;;;;;;;0.57;0.43;;;;;;;9.86;100.00;99406.06;5095066;28;20051;-55
2021/09/29 02:10:55;;;;;;;0.20;0.20;;;;;;;9.81;100.00;99415.06;5094572;28;20395;-54
2021/09/29 02:13:57;;;;;;;0.20;0.20;;;;;;;9.78;100.00;99407.72;5094861;28;20046;-54
2021/09/29 02:17:00;;;;;;;0.10;0.10;;;;;;;9.67;100.00;99409.53;5094713;28;20181;-54
2021/09/29 02:20:03;;;;;;;0.50;0.50;;;;;;;9.63;100.00;99414.50;5094910;28;20075;-54
2021/09/29 02:23:06;;;;;;;0.25;0.25;;;;;;;9.73;100.00;99427.06;5094669;28;20581;-54
2021/09/29 02:26:09;;;;;;;0.20;0.20;;;;;;;9.69;100.00;99429.28;5094516;28;20113;-54
2021/09/29 02:29:14;;;;;;;0.20;0.20;;;;;;;9.72;100.00;99428.31;5094643;28;20046;-54
2021/09/29 02:32:17;;;;;;;0.45;0.30;;;;;;;9.79;100.00;99433.47;5094783;28;20039;-54
2021/09/29 02:35:20;;;;;;;0.30;0.30;;;;;;;9.82;100.00;99422.19;5094367;28;20123;-54
2021/09/29 02:38:22;;;;;;;0.15;0.15;;;;;;;9.82;100.00;99436.09;5094618;28;20112;-55
2021/09/29 02:41:26;;;;;;;0.30;0.30;;;;;;;9.64;100.00;99436.28;5094271;28;20047;-54
2021/09/29 02:44:29;;;;;;;0.57;0.20;;;;;;;9.70;100.00;99441.94;5093946;28;20043;-55
2021/09/29 02:47:31;;;;;;;1.20;0.30;;;;;;;9.70;100.00;99441.94;5094070;28;20089;-54
2021/09/29 02:50:34;;;;;;;0.63;0.45;;;;;;;9.73;100.00;99443.75;5094283;28;20055;-55
2021/09/29 02:53:37;;;;;;;1.45;0.25;;;;;;;9.75;100.00;99452.38;5093802;28;20129;-54
2021/09/29 02:56:40;;;;;;;0.10;0.10;;;;;;;9.96;100.00;99458.81;5093919;28;20046;-54
2021/09/29 02:59:43;;;;;;;0.32;0.32;;;;;;;9.98;100.00;99464.66;5093753;28;20039;-54
2021/09/29 03:02:46;;;;;;;0.77;0.60;;;;;;;10.11;100.00;99465.16;5093732;28;20093;-54
2021/09/29 03:05:48;;;;;;;0.88;0.70;;;;;;;10.13;100.00;99474.56;5094026;28;20097;-54
2021/09/29 03:08:51;;;;;;;0.28;0.28;;;;;;;10.16;100.00;99468.00;5093715;28;20148;-54
2021/09/29 03:11:54;;;;;;;0.20;0.20;;;;;;;10.35;100.00;99463.75;5093520;28;20051;-54
2021/09/29 03:14:57;;;;;;;0.15;0.15;;;;;;;10.51;100.00;99466.03;5093783;28;20129;-54
2021/09/29 03:18:00;;;;;;;0.10;0.10;;;;;;;9.51;100.00;99482.25;5093698;28;20092;-54
2021/09/29 03:21:03;;;;;;;0.20;0.20;;;;;;;9.85;100.00;99476.81;5093643;28;20156;-54
2021/09/29 03:24:06;;;;;;;0.30;0.30;;;;;;;9.37;100.00;99485.78;5093544;28;20486;-54
2021/09/29 03:27:09;;;;;;;0.80;0.30;;;;;;;9.57;100.00;99485.94;5093823;28;20448;-55
2021/09/29 03:30:13;;;;;;;0.30;0.30;;;;;;;10.01;100.00;99485.94;5093570;28;20042;-54
2021/09/29 03:33:16;;;;;;;0.15;0.15;;;;;;;10.07;100.00;99487.56;5093788;28;20437;-54
2021/09/29 03:36:18;;;;;;;0.22;0.22;;;;;;;10.01;100.00;99500.59;5093408;28;20400;-54
2021/09/29 03:39:21;;;;;;;0.20;0.20;;;;;;;10.08;100.00;99499.47;5093360;28;20169;-54
2021/09/29 03:42:25;;;;;;;0.10;0.10;;;;;;;10.12;100.00;99514.75;5093220;28;20133;-54
2021/09/29 03:45:28;;;;;;;0.28;0.28;;;;;;;10.17;100.00;99522.44;5093302;28;20063;-54
2021/09/29 03:48:31;;;;;;;0.20;0.20;;;;;;;10.22;100.00;99526.56;5093301;28;20085;-54
2021/09/29 03:51:33;;;;;;;0.52;0.47;;;;;;;10.18;100.00;99529.50;5093148;28;20051;-55
2021/09/29 03:54:36;;;;;;;0.10;0.10;;;;;;;10.29;100.00;99538.03;5092935;28;20039;-55
2021/09/29 03:57:39;;;;;;;0.20;0.20;;;;;;;10.36;100.00;99543.22;5092780;28;20557;-55
2021/09/29 04:00:42;;;;;;;0.30;0.30;;;;;;;10.41;100.00;99545.34;5092515;28;20039;-54
2021/09/29 04:03:45;;;;;;;2.00;0.82;;;;;;;10.47;100.00;99564.91;5092793;28;20119;-54
2021/09/29 04:06:48;;;;;;;0.40;0.40;;;;;;;10.50;100.00;99564.69;5091355;28;20113;-55
2021/09/29 04:09:51;;;;;;;0.10;0.10;;;;;;;10.50;100.00;99570.25;5093112;28;20062;-55
2021/09/29 04:12:54;;;;;;;0.20;0.20;;;;;;;10.55;100.00;99577.19;5092748;28;20503;-55
2021/09/29 04:55:04;;;;;;;0.20;0.20;;;;;;;10.34;100.00;99620.88;5131244;27;20364;-50
2021/09/29 04:58:09;;;;;;;0.65;0.40;;;;;;;10.39;100.00;99625.00;5130927;28;20539;-50
2021/09/29 05:01:15;;;;;;;0.15;0.15;;;;;;;10.39;100.00;99625.00;5130991;28;20065;-51
2021/09/29 05:04:23;;;;;;;0.68;0.68;;;;;;;10.30;100.00;99611.94;5130994;28;20066;-51
2021/09/29 05:07:26;;;;;;;0.10;0.10;;;;;;;10.25;100.00;99629.31;5130909;28;20104;-50
2021/09/29 05:10:45;;;;;;;0.20;0.20;;;;;;;10.22;100.00;99627.47;5130754;28;20092;-50
2021/09/29 05:13:48;;;;;;;0.20;0.20;;;;;;;10.32;100.00;99647.66;5130869;28;20042;-50
2021/09/29 05:16:51;;;;;;;0.20;0.20;;;;;;;10.34;100.00;99651.50;5130755;28;20100;-50
2021/09/29 05:19:54;;;;;;;1.77;0.60;;;;;;;10.42;100.00;99663.78;5130665;28;20088;-51
2021/09/29 05:22:57;;;;;;;0.68;0.20;;;;;;;10.55;100.00;99674.63;5130532;28;20127;-51
2021/09/29 05:26:00;;;;;;;0.95;0.43;;;;;;;10.65;100.00;99665.69;5129721;28;20104;-51
2021/09/29 05:29:06;;;;;;;0.77;0.50;;;;;;;10.83;100.00;99669.56;5130535;28;20176;-51
2021/09/29 05:32:09;;;;;;;0.10;0.10;;;;;;;10.70;100.00;99671.88;5130427;28;20050;-51
2021/09/29 05:35:12;;;;;;;0.95;0.30;;;;;;;10.48;100.00;99667.44;5130410;28;20058;-51
2021/09/29 05:38:15;;;;;;;0.20;0.20;;;;;;;10.42;100.00;99674.13;5130482;28;20111;-50
2021/09/29 05:41:19;;;;;;;0.68;0.68;;;;;;;10.32;100.00;99676.25;5130354;28;20395;-50
2021/09/29 05:44:21;;;;;;;0.20;0.20;;;;;;;10.30;100.00;99675.97;5129653;28;20124;-51
2021/09/29 05:47:24;;;;;;;0.28;0.28;;;;;;;10.27;100.00;99685.25;5128922;28;20399;-50
2021/09/29 05:50:27;;;;;;;0.65;0.65;;;;;;;10.36;100.00;99682.41;5129597;28;20088;-51
2021/09/29 05:53:30;;;;;;;0.20;0.20;;;;;;;10.07;100.00;99687.88;5129416;28;20050;-52
2021/09/29 05:56:33;;;;;;;1.85;1.33;;;;;;;10.53;100.00;99700.19;5115998;28;20139;-51
2021/09/29 05:59:35;;;;;;;0.50;0.35;;;;;;;10.90;100.00;99697.00;5115731;28;20100;-52
2021/09/29 06:02:39;;;;;;;0.63;0.10;;;;;;;10.58;100.00;99710.66;5115529;28;20042;-52
2021/09/29 06:05:43;;;;;;;2.10;0.77;;;;;;;10.87;100.00;99698.72;5115614;28;20042;-52
2021/09/29 06:08:45;;;;;;;0.45;0.45;;;;;;;10.85;100.00;99717.19;5115752;28;20050;-51
2021/09/29 06:23:24;;;;;;;0.35;0.32;;;;;;;10.94;100.00;99736.56;6293212;22;1355188;-56
2021/09/29 06:26:27;;;;;;;1.60;0.68;;;;;;;11.01;100.00;99747.34;6347514;22;20396;-56
2021/09/29 06:29:31;;;;;;;0.20;0.20;;;;;;;11.01;100.00;99748.13;6329313;22;20053;-53
2021/09/29 06:32:34;;;;;;;0.30;0.30;;;;;;;10.98;100.00;99749.06;6347527;22;20331;-54
2021/09/29 06:35:37;;;;;;;0.90;0.80;;;;;;;10.95;100.00;99755.63;6348141;22;20067;-53
2021/09/29 06:38:40;;;;;;;0.43;0.43;;;;;;;10.58;100.00;99766.34;6328659;22;20150;-54
2021/09/29 06:41:45;;;;;;;0.40;0.40;;;;;;;10.92;100.00;99766.94;6347878;22;20020;-54
2021/09/29 06:44:48;;;;;;;5.80;0.75;;;;;;;11.15;100.00;99780.03;6347655;22;20473;-54
2021/09/29 07:19:59;;;;;;;0.43;0.32;;;;;;;11.29;100.00;99826.63;5109611;27;20373;-54
2021/09/29 07:23:05;;;;;;;0.35;0.20;;;;;;;11.20;100.00;99837.88;5108859;28;20050;-54
2021/09/29 07:26:07;;;;;;;0.13;0.13;;;;;;;11.17;100.00;99847.19;5108259;28;20097;-54
2021/09/29 07:29:10;;;;;;;0.20;0.20;;;;;;;11.19;100.00;99864.22;5109771;28;20059;-53
2021/09/29 07:32:13;;;;;;;0.20;0.20;;;;;;;11.12;100.00;99865.38;5109918;28;20571;-54
2021/09/29 07:35:16;;;;;;;1.30;0.57;;;;;;;11.21;100.00;99864.50;5109659;28;20067;-53
2021/09/29 07:38:20;;;;;;;0.20;0.20;;;;;;;11.41;100.00;99870.19;5109753;28;20080;-55
2021/09/29 07:41:22;;;;;;;0.25;0.25;;;;;;;11.36;100.00;99873.63;5109697;28;20074;-55
2021/09/29 07:44:25;;;;;;;0.15;0.15;;;;;;;11.48;100.00;99891.34;5109625;28;20043;-53
2021/09/29 07:47:28;;;;;;;0.55;0.55;;;;;;;11.45;100.00;99901.44;5109281;28;20039;-54
2021/09/29 07:50:31;;;;;;;0.30;0.30;;;;;;;11.51;100.00;99901.53;5109496;28;20046;-53
2021/09/29 07:53:34;;;;;;;0.65;0.60;;;;;;;11.54;100.00;99906.94;5109205;28;20040;-54
2021/09/29 07:56:37;;;;;;;0.57;0.47;;;;;;;11.73;100.00;99913.09;5109320;28;20092;-54
2021/09/29 07:59:40;;;;;;;0.30;0.17;;;;;;;11.90;100.00;99909.34;5109114;28;20031;-54
2021/09/29 08:02:44;;;;;;;0.40;0.40;;;;;;;11.91;100.00;99918.47;5109509;28;20119;-54
2021/09/29 08:05:47;;;;;;;0.30;0.30;;;;;;;11.94;100.00;99920.28;5109358;28;20126;-54
2021/09/29 08:08:52;;;;;;;9.90;0.38;;;;;;;12.13;100.00;99930.75;5108996;28;20074;-54
2021/09/29 08:11:55;;;;;;;0.35;0.35;;;;;;;12.22;100.00;99931.88;5109728;28;20059;-54
2021/09/29 08:14:58;;;;;;;0.30;0.30;;;;;;;12.63;100.00;99927.91;5099377;28;20047;-54
2021/09/29 08:18:01;;;;;;;0.30;0.20;;;;;;;12.82;100.00;99945.97;5096308;28;20055;-55
2021/09/29 08:21:08;;;;;;;0.10;0.10;;;;;;;12.68;100.00;99955.16;5084654;28;20121;-55
2021/09/29 08:24:26;;;;;;;0.43;0.20;;;;;;;12.50;100.00;99953.38;5082156;28;20039;-55
2021/09/29 08:34:41;;;;;;;0.82;0.70;;;;;;;12.27;100.00;99978.66;5095160;28;20043;-54
2021/09/29 08:40:24;;;;;;;0.20;0.20;;;;;;;12.29;100.00;99978.94;5095033;28;20105;-54
2021/09/29 08:46:35;;;;;;;1.40;0.60;;;;;;;12.19;100.00;99984.66;5094812;28;20141;-55
2021/09/29 09:16:15;;;;;;;0.25;0.25;;;;;;;11.97;100.00;100028.97;5078989;28;20495;-55
2021/09/29 09:56:24;;;;;;;3.88;1.30;;;;;;;13.01;100.00;100056.25;5131501;27;20374;-53
2021/09/29 09:59:30;;;;;;;8.10;0.80;;;;;;;12.95;100.00;100055.38;5131079;28;20382;-55
2021/09/29 10:02:47;;;;;;;2.03;1.10;;;;;;;12.90;100.00;100058.88;5130888;28;20092;-55
2021/09/29 10:05:53;;;;;;;0.75;0.60;;;;;;;12.75;100.00;100064.50;5130143;28;20132;-56
2021/09/29 10:09:03;;;;;;;1.00;0.57;;;;;;;12.73;100.00;100071.84;5141555;27;20046;-54
2021/09/29 10:28:40;;;;;;;;;;;;;;;12.80;100.00;100080.56;5131406;28;19980;-56
2021/09/29 10:32:04;;;;;;;0.50;0.50;;;;;;;12.97;100.00;100092.03;5130452;28;19965;-53
2021/09/29 10:40:18;;;;;;;0.88;0.30;;;;;;;13.07;100.00;100095.47;5130283;28;20460;-54
2021/09/29 11:06:03;;;;;;;0.65;0.43;;;;;;;14.46;100.00;100140.69;5124067;27;20070;-53
2021/09/29 11:31:54;;;;;;;0.40;0.20;;;;;;;13.35;100.00;100161.75;5115650;28;20139;-54
2021/09/29 11:35:01;;;;;;;0.20;0.20;;;;;;;13.72;100.00;100173.19;5115629;28;20092;-53
2021/09/29 11:38:38;;;;;;;0.20;0.20;;;;;;;14.06;100.00;100169.53;5115786;28;20078;-53
2021/09/29 12:09:15;;;;;;;0.68;0.45;;;;;;;13.53;100.00;100211.88;5115657;28;20034;-53
2021/09/29 12:15:30;;;;;;;0.20;0.10;;;;;;;13.94;100.00;100218.28;5114206;28;20131;-55
2021/09/29 12:18:34;;;;;;;0.40;0.30;;;;;;;13.76;100.00;100231.75;5114029;28;20051;-53
2021/09/29 12:21:45;;;;;;;0.20;0.20;;;;;;;13.43;100.00;100224.41;5114876;28;20039;-54
2021/09/29 12:25:06;;;;;;;0.80;0.35;;;;;;;13.25;100.00;100235.84;5113956;28;20042;-50
2021/09/29 13:03:48;;;;;;;4.40;1.02;;;;;;;12.82;100.00;100282.09;6296213;22;1289497;-48
2021/09/29 13:06:50;;;;;;;0.10;0.10;;;;;;;12.72;100.00;100283.44;6347399;22;20107;-48
2021/09/29 13:09:54;;;;;;;0.10;0.10;;;;;;;12.86;100.00;100276.34;6347515;22;20029;-48
2021/09/29 13:12:57;;;;;;;0.30;0.30;;;;;;;13.01;100.00;100281.94;6347489;22;20065;-48
2021/09/29 13:16:05;;;;;;;2.10;0.65;;;;;;;13.24;100.00;100283.88;6347535;22;20101;-48
2021/09/29 13:19:17;;;;;;;1.20;0.32;;;;;;;13.47;100.00;100297.72;6347588;22;20109;-47
2021/09/29 13:22:22;;;;;;;0.22;0.22;;;;;;;13.50;100.00;100291.19;6347209;22;20017;-48
2021/09/29 13:36:33;;;;;;;0.30;0.30;;;;;;;13.77;100.00;100314.47;6347309;22;20462;-53
2021/09/29 13:38:49;;;;;;;6.15;0.60;;;;;;;14.10;100.00;100310.13;6347126;22;20357;-55
2021/09/29 13:41:53;;;;;;;2.05;0.30;;;;;;;14.26;100.00;100314.41;6347140;22;20335;-55
2021/09/29 13:44:58;;;;;;;0.10;0.10;;;;;;;14.12;100.00;100312.44;6347218;22;20068;-55
2021/09/29 13:48:01;;;;;;;0.28;0.10;;;;;;;14.11;100.00;100327.69;6347216;22;20393;-56
2021/09/29 13:51:04;;;;;;;0.30;0.30;;;;;;;13.96;100.00;100346.56;6347192;22;20029;-56
2021/09/29 13:54:12;;;;;;;0.20;0.20;;;;;;;13.70;100.00;100360.44;6346267;22;20063;-56
2021/09/29 13:57:19;;;;;;;0.10;0.10;;;;;;;13.34;100.00;100378.38;6347055;22;20060;-55
2021/09/29 14:30:32;;;;;;;0.10;0.10;;;;;;;12.59;100.00;100413.47;6339556;22;20038;-55
2021/09/29 14:33:39;;;;;;;1.23;0.57;;;;;;;12.53;100.00;100426.56;6339533;22;20036;-53
2021/09/29 14:36:42;;;;;;;5.88;0.32;;;;;;;12.43;100.00;100445.38;6339606;22;20094;-55
2021/09/29 14:39:46;;;;;;;0.15;0.15;;;;;;;12.42;100.00;100431.91;6339371;22;20029;-53
2021/09/29 14:42:49;;;;;;;5.78;0.32;;;;;;;12.32;100.00;100433.22;6339548;22;20021;-54
2021/09/29 14:45:52;;;;;;;0.20;0.20;;;;;;;12.38;100.00;100446.06;6339498;22;20025;-52
2021/09/29 14:48:55;;;;;;;2.17;0.80;;;;;;;12.53;100.00;100432.16;6339629;22;20025;-53
2021/09/29 14:52:00;;;;;;;1.35;0.70;;;;;;;12.63;100.00;100437.19;6339417;22;20022;-53
2021/09/29 14:55:03;;;;;;;2.28;0.95;;;;;;;12.75;100.00;100432.63;6339595;22;20392;-53
2021/09/29 14:58:07;;;;;;;0.40;0.40;;;;;;;13.06;100.00;100430.22;6339536;22;20026;-53
2021/09/29 15:01:10;;;;;;;0.30;0.30;;;;;;;13.07;100.00;100420.59;6339435;22;20023;-53
2021/09/29 15:04:13;;;;;;;0.15;0.15;;;;;;;13.11;100.00;100437.97;6339504;22;20048;-53
2021/09/29 15:07:16;;;;;;;0.20;0.20;;;;;;;13.13;100.00;100432.66;6339362;22;20021;-53
2021/09/29 15:10:19;;;;;;;0.30;0.30;;;;;;;13.11;100.00;100437.97;6339356;22;20026;-53
2021/09/29 15:13:28;;;;;;;3.95;0.85;;;;;;;13.17;100.00;100435.28;6339203;22;20346;-54
2021/09/29 15:16:42;;;;;;;1.10;0.68;;;;;;;13.42;100.00;100435.53;6338700;22;20025;-54
2021/09/29 16:36:27;;;;;;;3.20;0.45;;;;;;;12.66;100.00;100489.34;5110523;28;19927;-47
2021/09/29 16:39:30;;;;;;;2.78;0.28;;;;;;;12.49;100.00;100493.03;5110515;28;20050;-47
2021/09/29 16:42:33;;;;;;;0.85;0.43;;;;;;;12.39;100.00;100497.13;5110326;28;20494;-47
2021/09/29 16:45:37;;;;;;;0.20;0.20;;;;;;;12.30;100.00;100508.31;5109908;28;20084;-47
2021/09/29 16:48:40;;;;;;;0.15;0.15;;;;;;;12.25;100.00;100515.31;5109805;28;20035;-47
2021/09/29 16:51:48;;;;;;;0.30;0.30;;;;;;;12.13;100.00;100511.47;5109800;28;20051;-47
2021/09/29 16:54:52;;;;;;;0.85;0.82;;;;;;;11.92;100.00;100509.66;5108955;28;20047;-47
2021/09/29 17:01:29;;;;;;;6.75;1.02;;;;;;;11.73;100.00;100538.84;5107105;28;20051;-48
2021/09/29 17:04:33;;;;;;;0.30;0.25;;;;;;;11.58;100.00;100549.06;5109616;28;20039;-47
2021/09/29 17:07:35;;;;;;;0.32;0.28;;;;;;;11.39;100.00;100544.72;5109371;28;20400;-47
2021/09/29 17:10:39;;;;;;;0.20;0.20;;;;;;;11.06;100.00;100560.47;5108691;28;20051;-47
2021/09/29 17:13:44;;;;;;;0.75;0.30;;;;;;;10.91;100.00;100562.31;5106121;28;20070;-49
2021/09/29 17:16:46;;;;;;;2.42;0.52;;;;;;;10.81;100.00;100557.94;5108916;28;20050;-49
2021/09/29 17:19:49;;;;;;;9.35;0.90;;;;;;;10.83;100.00;100561.81;5101735;28;20043;-48
2021/09/29 17:22:59;;;;;;;0.63;0.63;;;;;;;10.89;100.00;100570.34;5096135;28;20051;-49
2021/09/29 17:26:03;;;;;;;1.10;0.32;;;;;;;10.92;100.00;100575.00;5095996;28;20043;-48
2021/09/29 17:29:07;;;;;;;2.17;0.35;;;;;;;10.94;100.00;100578.09;5095409;28;20097;-47
2021/09/29 17:32:13;;;;;;;0.63;0.63;;;;;;;10.97;100.00;100582.75;5093123;28;20511;-47
2021/09/29 17:54:39;;;;;;;0.75;0.40;;;;;;;10.34;100.00;100603.56;5095337;28;20047;-47
2021/09/29 17:57:44;;;;;;;0.85;0.38;;;;;;;10.31;100.00;100607.22;5095099;28;20047;-48
2021/09/29 18:00:48;;;;;;;2.35;0.63;;;;;;;10.18;100.00;100606.53;5095095;28;20055;-47
2021/09/29 18:10:09;;;;;;;2.75;0.57;;;;;;;9.98;100.00;100614.44;5095350;28;20097;-47
2021/09/29 18:13:12;;;;;;;1.20;0.70;;;;;;;9.88;100.00;100618.34;5094964;28;20055;-46
2021/09/29 18:16:16;;;;;;;0.57;0.57;;;;;;;9.76;100.00;100619.19;5094774;28;20638;-46
2021/09/29 18:19:19;;;;;;;4.40;0.75;;;;;;;9.67;100.00;100619.13;5094746;28;20123;-46
2021/09/29 18:22:22;;;;;;;1.33;0.77;;;;;;;9.64;100.00;100617.22;5094384;28;20050;-46
2021/09/29 18:25:26;;;;;;;2.40;0.32;;;;;;;9.64;100.00;100625.56;5094142;28;20047;-46
2021/09/29 18:28:29;;;;;;;2.17;0.47;;;;;;;9.56;100.00;100627.06;5073769;28;20039;-46
2021/09/29 18:31:32;;;;;;;4.15;0.52;;;;;;;9.51;100.00;100630.38;5072981;28;20063;-57
2021/09/29 18:34:37;;;;;;;1.05;0.85;;;;;;;9.45;100.00;100621.06;5074018;28;20034;-53
2021/09/29 18:37:43;;;;;;;2.10;0.47;;;;;;;9.45;100.00;100626.63;5074361;28;20043;-54
2021/09/29 18:40:46;;;;;;;2.50;0.70;;;;;;;9.46;100.00;100625.41;5072995;28;20040;-54
2021/09/29 18:43:51;;;;;;;9.23;0.75;;;;;;;9.39;100.00;100608.97;5074297;28;20075;-55
2021/09/29 18:46:54;;;;;;;0.63;0.63;;;;;;;9.34;100.00;100615.09;5073713;28;20103;-55
2021/09/29 18:49:58;;;;;;;4.20;1.55;;;;;;;9.26;100.00;100622.13;5074079;28;20117;-55
2021/09/29 18:53:01;;;;;;;2.40;1.27;;;;;;;9.05;100.00;100618.81;5073322;28;20085;-55
2021/09/29 18:56:16;;;;;;;4.28;1.40;;;;;;;9.12;100.00;100626.94;5073826;28;20063;-55
2021/09/29 19:09:24;;;;;;;5.38;0.85;;;;;;;8.99;100.00;100634.50;5073645;28;20190;-55
2021/09/29 19:12:27;;;;;;;2.75;0.77;;;;;;;8.93;100.00;100636.28;5073269;28;20055;-54
2021/09/29 19:15:31;;;;;;;1.30;0.77;;;;;;;8.91;100.00;100632.38;5072482;28;20067;-54
2021/09/29 19:18:35;;;;;;;2.20;0.85;;;;;;;8.86;100.00;100636.50;5073287;28;20083;-54
2021/09/29 19:21:40;;;;;;;5.45;1.63;;;;;;;8.81;100.00;100641.84;5073327;28;20051;-54
2021/09/29 19:24:44;;;;;;;8.35;3.47;;;;;;;8.77;100.00;100641.19;5072893;28;20507;-54
2021/09/29 19:27:52;;;;;;;19.50;3.78;;;;;;;8.76;100.00;100642.41;5088899;28;20498;-54
2021/09/29 19:31:02;;;;;;;15.38;2.85;;;;;;;8.76;100.00;100648.72;5093477;28;20062;-54
2021/09/29 19:34:05;;;;;;;7.35;2.13;;;;;;;8.70;100.00;100646.94;5093303;28;20043;-54
2021/09/29 19:37:08;;;;;;;10.45;2.15;;;;;;;8.61;100.00;100644.84;5092935;28;20545;-54
2021/09/29 19:40:12;;;;;;;8.40;2.17;;;;;;;8.56;100.00;100652.91;5092993;28;20043;-54
2021/09/29 19:43:17;;;;;;;2.67;1.75;;;;;;;8.50;100.00;100647.16;5093434;28;20074;-54
2021/09/29 19:46:26;;;;;;;10.65;3.85;;;;;;;8.44;100.00;100648.94;5093103;28;20054;-54
2021/09/29 19:49:47;;;;;;;4.47;2.38;;;;;;;8.41;100.00;100655.34;5092903;28;20510;-53
2021/09/29 20:09:36;;;;;;;10.45;1.50;;;;;;;8.00;100.00;100658.88;5092758;28;20129;-53
2021/09/29 20:12:40;;;;;;;4.47;1.50;;;;;;;7.89;100.00;100649.28;5093030;28;20086;-53
2021/09/29 20:15:44;;;;;;;10.55;1.85;;;;;;;7.82;100.00;100652.25;5092821;28;20043;-53
2021/09/29 20:18:47;;;;;;;0.43;0.43;;;;;;;7.89;100.00;100658.38;5092833;28;20650;-53
2021/09/29 20:21:50;;;;;;;1.48;0.80;;;;;;;7.86;100.00;100652.94;5093187;28;20054;-53
2021/09/29 20:24:54;;;;;;;1.27;0.85;;;;;;;7.81;100.00;100650.69;5092806;28;20537;-53
2021/09/29 20:27:57;;;;;;;6.85;1.13;;;;;;;7.77;100.00;100650.00;5092548;28;20043;-53
2021/09/29 20:31:00;;;;;;;3.20;0.57;;;;;;;7.68;100.00;100649.84;5093083;28;20101;-53
2021/09/29 20:43:55;;;;;;;1.80;0.63;;;;;;;7.73;100.00;100639.03;5092982;28;20050;-53
2021/09/29 20:46:58;;;;;;;3.58;0.82;;;;;;;7.72;100.00;100636.66;5092364;28;20123;-53
2021/09/29 20:50:03;;;;;;;4.47;0.82;;;;;;;7.73;100.00;100633.50;5092412;28;20050;-53
2021/09/29 20:53:10;;;;;;;0.55;0.55;;;;;;;7.78;100.00;100640.47;5091916;28;20055;-53
2021/09/29 20:56:13;;;;;;;6.72;0.90;;;;;;;7.84;100.00;100633.19;5083976;28;20388;-54
2021/09/29 20:59:17;;;;;;;0.40;0.30;;;;;;;7.91;100.00;100632.97;5096156;28;20043;-53
2021/09/29 21:02:20;;;;;;;1.27;0.50;;;;;;;7.94;100.00;100632.09;5096420;28;20132;-53
2021/09/29 21:05:23;;;;;;;1.55;0.80;;;;;;;7.92;100.00;100629.00;5096054;28;20042;-53
2021/09/29 21:08:33;;;;;;;1.98;0.95;;;;;;;7.95;100.00;100636.47;5096203;28;20043;-53
2021/09/29 21:11:47;;;;;;;1.30;0.98;;;;;;;7.92;100.00;100629.00;5096042;28;20465;-53
2021/09/29 21:15:28;;;;;;;0.40;0.40;;;;;;;7.90;100.00;100625.88;5095805;28;20145;-53
2021/09/29 21:18:20;;;;;;;1.38;1.15;;;;;;;7.90;100.00;100628.66;5096087;28;20459;-54
2021/09/29 21:21:22;;;;;;;7.93;1.25;;;;;;;7.88;100.00;100622.78;5095985;28;20527;-54
2021/09/29 21:24:25;;;;;;;1.75;0.98;;;;;;;7.86;100.00;100634.28;5095851;28;20043;-54
2021/09/29 21:27:29;;;;;;;9.48;1.85;;;;;;;7.82;100.00;100632.84;5095010;28;20511;-53
2021/09/29 21:30:38;;;;;;;5.70;0.90;;;;;;;7.81;100.00;100634.06;5095382;28;20089;-53
2021/09/29 21:33:44;;;;;;;2.35;1.40;;;;;;;7.78;100.00;100632.16;5095736;28;20511;-54
2021/09/29 21:36:49;;;;;;;14.80;1.13;;;;;;;7.76;100.00;100631.81;5095447;28;20177;-53
2021/09/29 22:03:10;;;;;;;1.20;0.75;;;;;;;7.92;100.00;100634.53;5095464;28;20062;-54
2021/09/29 22:22:19;;;;;;;0.77;0.47;;;;;;;8.06;100.00;100629.38;5094936;28;20407;-54
2021/09/29 23:02:56;;;;;;;0.30;0.30;;;;;;;9.05;100.00;100590.28;5074035;28;20059;-55
2021/09/29 23:05:08;;;;;;;0.40;0.40;;;;;;;9.14;100.00;100585.56;5073342;28;20040;-55
2021/09/29 23:08:15;;;;;;;0.40;0.40;;;;;;;9.30;100.00;100589.44;5073719;28;20131;-55
2021/09/29 23:11:42;;;;;;;0.15;0.15;;;;;;;9.42;100.00;100583.06;5073874;28;20120;-55
2021/09/29 23:34:34;;;;;;;;;;;;;;;9.93;100.00;100573.28;5093866;28;20043;-55
2021/09/29 23:37:39;;;;;;;0.45;0.35;;;;;;;9.85;100.00;100564.38;5093521;28;19985;-55
2021/09/29 23:40:49;;;;;;;0.60;0.40;;;;;;;9.81;100.00;100571.34;5093190;28;20047;-55
2021/09/29 23:43:52;;;;;;;0.30;0.30;;;;;;;9.77;100.00;100565.88;5093296;28;20123;-54
2021/09/29 23:46:54;;;;;;;2.30;0.50;;;;;;;9.75;100.00;100570.34;5092937;28;20043;-55
2021/09/29 23:49:57;;;;;;;2.30;0.80;;;;;;;9.74;100.00;100580.72;5092994;28;20042;-54
2021/09/29 23:53:00;;;;;;;1.10;0.85;;;;;;;9.71;100.00;100581.59;5093170;28;20093;-55